Time;durP1;ratioP1;P1;durP2;ratioP2;P2;SDS_P1;SDS_P2;PMS_P1;PMS_P2;Temp;Humidity;BMP_temperature;BMP_pressure;BME280_temperature;BME280_humidity;BME280_pressure;Samples;Min_cycle;Max_cycle;Signal;HPM_P1;HPM_P2
2023/02/23 00:01:16;;;;;;;35.33;14.63;;;;;;;;;;5033583;28;20033;-79
2023/02/23 00:03:42;;;;;;;33.80;16.07;;;;;;;;;;5032186;28;20543;-79
2023/02/23 00:06:09;;;;;;;34.47;16.47;;;;;;;;;;5031257;28;20022;-80
2023/02/23 00:08:36;;;;;;;29.90;15.00;;;;;;;;;;5033156;28;20697;-78
2023/02/23 00:11:06;;;;;;;32.87;15.77;;;;;;;;;;5031320;28;20353;-78
2023/02/23 00:13:36;;;;;;;29.67;15.13;;;;;;;;;;5031515;28;20314;-77
2023/02/23 00:16:27;;;;;;;33.67;16.67;;;;;;;;;;5032247;28;20033;-79
2023/02/23 00:18:59;;;;;;;34.38;17.13;;;;;;;;;;5027763;28;20485;-78
2023/02/23 00:21:34;;;;;;;31.17;15.60;;;;;;;;;;5031536;28;20063;-78
2023/02/23 00:24:04;;;;;;;30.27;15.13;;;;;;;;;;5031336;28;20754;-78
2023/02/23 00:26:33;;;;;;;38.03;17.00;;;;;;;;;;5047017;28;20431;-78
2023/02/23 00:29:00;;;;;;;35.77;16.80;;;;;;;;;;5031471;28;20488;-79
2023/02/23 00:31:26;;;;;;;33.63;16.23;;;;;;;;;;5032166;28;20041;-78
2023/02/23 00:33:53;;;;;;;33.73;15.77;;;;;;;;;;5032677;28;20056;-79
2023/02/23 00:36:21;;;;;;;31.17;15.83;;;;;;;;;;5030350;28;20464;-79
2023/02/23 00:38:47;;;;;;;39.50;17.63;;;;;;;;;;5032061;28;20038;-79
2023/02/23 00:41:47;;;;;;;41.00;17.40;;;;;;;;;;5031989;28;20060;-79
2023/02/23 00:44:06;;;;;;;33.07;16.63;;;;;;;;;;5030653;28;20041;-78
2023/02/23 00:46:31;;;;;;;37.20;17.47;;;;;;;;;;5031221;28;20493;-79
2023/02/23 00:48:58;;;;;;;36.27;16.93;;;;;;;;;;5032321;28;20025;-78
2023/02/23 00:51:26;;;;;;;36.70;17.60;;;;;;;;;;5031229;28;20053;-78
2023/02/23 00:53:56;;;;;;;34.50;16.63;;;;;;;;;;5031075;28;20036;-78
2023/02/23 00:56:22;;;;;;;39.77;17.73;;;;;;;;;;5030871;28;20033;-78
2023/02/23 00:58:48;;;;;;;32.37;16.77;;;;;;;;;;5030524;28;20025;-80
2023/02/23 01:01:14;;;;;;;37.57;17.77;;;;;;;;;;5030251;28;20017;-78
2023/02/23 01:03:41;;;;;;;37.33;17.47;;;;;;;;;;5031771;28;20037;-78
2023/02/23 01:06:10;;;;;;;37.83;16.47;;;;;;;;;;5030989;28;20025;-78
2023/02/23 01:08:40;;;;;;;34.30;17.43;;;;;;;;;;5029460;28;20120;-79
2023/02/23 01:11:08;;;;;;;33.37;17.13;;;;;;;;;;5031129;28;20459;-80
2023/02/23 01:13:38;;;;;;;42.10;17.60;;;;;;;;;;5030361;28;20026;-78
2023/02/23 01:16:08;;;;;;;38.13;17.90;;;;;;;;;;5029991;28;20244;-79
2023/02/23 01:18:34;;;;;;;37.23;18.27;;;;;;;;;;5029899;28;20481;-79
2023/02/23 01:21:00;;;;;;;35.20;18.23;;;;;;;;;;5030362;28;20029;-78
2023/02/23 01:23:26;;;;;;;40.40;17.50;;;;;;;;;;5033343;28;20030;-79
2023/02/23 01:25:51;;;;;;;40.47;18.27;;;;;;;;;;5033646;28;20084;-79
2023/02/23 01:28:17;;;;;;;33.03;17.13;;;;;;;;;;5035768;28;20087;-79
2023/02/23 01:30:43;;;;;;;36.93;17.20;;;;;;;;;;5051159;28;20029;-78
2023/02/23 01:33:11;;;;;;;38.90;18.23;;;;;;;;;;5035983;28;20037;-79
2023/02/23 01:35:37;;;;;;;33.87;17.27;;;;;;;;;;5035002;28;20136;-80
2023/02/23 01:38:03;;;;;;;36.13;17.63;;;;;;;;;;5037232;28;20056;-79
2023/02/23 01:40:29;;;;;;;38.23;17.30;;;;;;;;;;5057162;28;20037;-79
2023/02/23 01:42:57;;;;;;;36.67;16.70;;;;;;;;;;5056793;28;20051;-79
2023/02/23 01:45:37;;;;;;;38.50;17.83;;;;;;;;;;5055196;28;20040;-79
2023/02/23 01:48:22;;;;;;;37.97;16.93;;;;;;;;;;5055358;28;20321;-79
2023/02/23 01:50:54;;;;;;;40.57;19.43;;;;;;;;;;5056304;28;20068;-79
2023/02/23 01:53:21;;;;;;;40.97;16.90;;;;;;;;;;5055461;28;20039;-79
2023/02/23 01:55:53;;;;;;;38.90;17.83;;;;;;;;;;5055361;28;20483;-79
2023/02/23 01:58:21;;;;;;;36.10;17.73;;;;;;;;;;5055193;28;20032;-80
2023/02/23 02:00:52;;;;;;;38.97;17.53;;;;;;;;;;5054657;28;20092;-79
2023/02/23 02:03:26;;;;;;;35.38;18.33;;;;;;;;;;5054328;28;20044;-79
2023/02/23 02:05:53;;;;;;;39.23;18.73;;;;;;;;;;5058501;28;20029;-78
2023/02/23 02:08:23;;;;;;;40.97;18.80;;;;;;;;;;5054975;28;20032;-79
2023/02/23 02:10:54;;;;;;;39.93;20.77;;;;;;;;;;5054284;28;20024;-79
2023/02/23 02:13:24;;;;;;;38.10;18.33;;;;;;;;;;5053762;28;20027;-79
2023/02/23 02:15:57;;;;;;;40.80;17.97;;;;;;;;;;5054710;28;20079;-79
2023/02/23 02:18:37;;;;;;;39.23;17.97;;;;;;;;;;5053152;28;20037;-80
2023/02/23 02:21:10;;;;;;;39.57;18.50;;;;;;;;;;5053475;28;20025;-78
2023/02/23 02:24:14;;;;;;;37.67;17.50;;;;;;;;;;5053593;28;20432;-78
2023/02/23 02:27:00;;;;;;;39.23;18.33;;;;;;;;;;5053719;28;20484;-78
2023/02/23 02:29:56;;;;;;;39.03;17.67;;;;;;;;;;5067917;28;20021;-77
2023/02/23 02:32:36;;;;;;;35.70;17.30;;;;;;;;;;5050579;28;20115;-78
2023/02/23 02:35:31;;;;;;;34.27;17.30;;;;;;;;;;5041515;28;20017;-77
2023/02/23 02:38:37;;;;;;;37.40;15.70;;;;;;;;;;4984309;28;20042;-79
2023/02/23 02:41:13;;;;;;;34.70;17.03;;;;;;;;;;5041935;28;20041;-79
2023/02/23 02:43:59;;;;;;;40.13;18.37;;;;;;;;;;5071970;28;20028;-78
2023/02/23 02:46:37;;;;;;;42.53;19.67;;;;;;;;;;5063714;28;20080;-79
2023/02/23 02:49:16;;;;;;;38.40;18.73;;;;;;;;;;5052140;28;20021;-79
2023/02/23 02:51:59;;;;;;;44.10;19.43;;;;;;;;;;5070913;28;20097;-79
2023/02/23 02:54:38;;;;;;;45.77;19.70;;;;;;;;;;5037533;28;20132;-81
2023/02/23 02:57:05;;;;;;;41.70;20.03;;;;;;;;;;5062970;28;20135;-78
2023/02/23 04:17:43;;;;;;;39.17;18.23;;;;;;;;;;5051794;28;20075;-79
2023/02/23 04:20:12;;;;;;;35.97;17.87;;;;;;;;;;5051039;28;20051;-79
2023/02/23 04:22:38;;;;;;;34.17;18.10;;;;;;;;;;5050676;28;20124;-79
2023/02/23 04:25:07;;;;;;;39.37;19.30;;;;;;;;;;5051663;28;20028;-79
2023/02/23 04:27:34;;;;;;;38.57;17.63;;;;;;;;;;5049680;28;20074;-80
2023/02/23 04:30:02;;;;;;;40.57;17.77;;;;;;;;;;5050368;28;20028;-80
2023/02/23 04:32:28;;;;;;;50.63;17.97;;;;;;;;;;5049836;28;20357;-80
2023/02/23 04:34:54;;;;;;;43.70;18.60;;;;;;;;;;5050127;28;20028;-78
2023/02/23 04:37:20;;;;;;;46.70;19.07;;;;;;;;;;5051615;28;20485;-79
2023/02/23 04:39:48;;;;;;;50.73;19.40;;;;;;;;;;5035743;28;20159;-78
2023/02/23 04:42:15;;;;;;;47.50;19.90;;;;;;;;;;5032459;28;20017;-78
2023/02/23 04:44:43;;;;;;;41.53;18.33;;;;;;;;;;5030099;28;20025;-80
2023/02/23 04:47:09;;;;;;;37.93;18.63;;;;;;;;;;5030355;28;20045;-79
2023/02/23 04:49:34;;;;;;;39.83;22.37;;;;;;;;;;5030166;28;20119;-79
2023/02/23 04:52:00;;;;;;;40.57;19.17;;;;;;;;;;5030596;28;20136;-78
2023/02/23 04:54:25;;;;;;;41.67;19.73;;;;;;;;;;5030192;28;20026;-80
2023/02/23 04:56:51;;;;;;;41.67;18.73;;;;;;;;;;5029710;28;20072;-79
2023/02/23 04:59:17;;;;;;;42.47;18.83;;;;;;;;;;5032141;28;20113;-78
2023/02/23 05:01:43;;;;;;;40.70;18.67;;;;;;;;;;5031815;28;20046;-79
2023/02/23 05:04:09;;;;;;;37.00;18.63;;;;;;;;;;5049508;28;20028;-79
2023/02/23 05:06:34;;;;;;;38.93;18.13;;;;;;;;;;5051855;28;20060;-79
2023/02/23 05:09:02;;;;;;;44.20;20.57;;;;;;;;;;5053612;28;20116;-80
2023/02/23 05:11:28;;;;;;;42.97;21.47;;;;;;;;;;5050124;28;20116;-79
2023/02/23 05:13:53;;;;;;;40.33;21.83;;;;;;;;;;5050180;28;20041;-80
2023/02/23 05:16:19;;;;;;;48.80;24.70;;;;;;;;;;5052240;28;20036;-79
2023/02/23 05:18:46;;;;;;;45.17;21.63;;;;;;;;;;5049057;28;20372;-79
2023/02/23 05:21:11;;;;;;;49.30;24.17;;;;;;;;;;5050232;28;20064;-80
2023/02/23 05:23:37;;;;;;;46.70;24.03;;;;;;;;;;5050179;28;20016;-79
2023/02/23 05:26:06;;;;;;;55.87;26.63;;;;;;;;;;5050177;28;20408;-79
2023/02/23 05:28:36;;;;;;;51.83;25.07;;;;;;;;;;5049902;28;20155;-80
2023/02/23 05:31:03;;;;;;;49.40;26.73;;;;;;;;;;5051462;28;20095;-79
2023/02/23 05:33:29;;;;;;;54.33;26.50;;;;;;;;;;5051037;28;20044;-78
2023/02/23 05:35:55;;;;;;;53.00;25.50;;;;;;;;;;5050387;28;20060;-79
2023/02/23 05:38:21;;;;;;;49.37;25.40;;;;;;;;;;5047845;28;20112;-80
2023/02/23 05:40:47;;;;;;;49.40;25.63;;;;;;;;;;5031795;28;20065;-79
2023/02/23 05:43:12;;;;;;;55.20;25.30;;;;;;;;;;5030416;28;20039;-80
2023/02/23 05:45:42;;;;;;;48.77;24.67;;;;;;;;;;5046744;28;20029;-80
2023/02/23 05:48:08;;;;;;;54.63;24.13;;;;;;;;;;5032225;28;20074;-79
2023/02/23 05:50:34;;;;;;;46.77;22.80;;;;;;;;;;5030645;28;20029;-79
2023/02/23 05:53:00;;;;;;;50.23;23.97;;;;;;;;;;5032202;28;20124;-79
2023/02/23 05:55:26;;;;;;;55.27;24.17;;;;;;;;;;5031025;28;20557;-79
2023/02/23 05:57:51;;;;;;;44.60;23.17;;;;;;;;;;5033714;28;20025;-79
2023/02/23 06:00:17;;;;;;;44.97;22.73;;;;;;;;;;5033960;28;20113;-80
2023/02/23 06:02:43;;;;;;;49.37;25.10;;;;;;;;;;5031603;28;20039;-80
2023/02/23 06:05:11;;;;;;;51.80;25.60;;;;;;;;;;5029287;28;20022;-79
2023/02/23 06:07:37;;;;;;;50.50;23.67;;;;;;;;;;5032064;28;20489;-80
2023/02/23 06:10:04;;;;;;;47.90;23.97;;;;;;;;;;5034047;28;20036;-79
2023/02/23 06:12:29;;;;;;;50.90;24.87;;;;;;;;;;5036004;28;20037;-78
2023/02/23 06:14:55;;;;;;;55.87;23.23;;;;;;;;;;5053369;28;20381;-79
2023/02/23 06:17:22;;;;;;;55.63;25.30;;;;;;;;;;5052108;28;20225;-78
2023/02/23 06:19:48;;;;;;;53.27;24.30;;;;;;;;;;5045267;28;20021;-80
2023/02/23 06:22:16;;;;;;;46.30;23.57;;;;;;;;;;5053953;28;20021;-79
2023/02/23 06:24:42;;;;;;;44.93;24.10;;;;;;;;;;5059566;28;20020;-92
2023/02/23 06:27:07;;;;;;;51.60;25.20;;;;;;;;;;5079729;28;20033;-90
2023/02/23 06:29:33;;;;;;;56.93;28.37;;;;;;;;;;5061521;28;20037;-90
2023/02/23 06:31:58;;;;;;;64.10;29.43;;;;;;;;;;5047004;28;20032;-91
2023/02/23 06:34:24;;;;;;;58.43;28.23;;;;;;;;;;5052877;28;20033;-77
2023/02/23 06:36:49;;;;;;;64.07;29.07;;;;;;;;;;5055527;28;20061;-79
2023/02/23 06:39:15;;;;;;;68.63;32.30;;;;;;;;;;5054112;28;20027;-81
2023/02/23 06:41:40;;;;;;;58.97;30.53;;;;;;;;;;5053984;28;20029;-80
2023/02/23 06:44:06;;;;;;;60.37;29.37;;;;;;;;;;5033547;28;20018;-79
2023/02/23 06:46:32;;;;;;;62.70;29.23;;;;;;;;;;5049362;28;20021;-81
2023/02/23 06:48:58;;;;;;;52.53;28.70;;;;;;;;;;5051898;28;20044;-79
2023/02/23 06:51:24;;;;;;;54.80;29.97;;;;;;;;;;5052790;28;20064;-78
2023/02/23 06:53:53;;;;;;;65.00;28.90;;;;;;;;;;5054139;28;20043;-79
2023/02/23 06:56:18;;;;;;;50.40;28.40;;;;;;;;;;5050436;28;20017;-77
2023/02/23 06:58:44;;;;;;;58.40;30.20;;;;;;;;;;5043007;28;20029;-79
2023/02/23 07:01:11;;;;;;;65.00;29.10;;;;;;;;;;5060094;28;20032;-80
2023/02/23 07:03:37;;;;;;;60.13;26.80;;;;;;;;;;5044529;28;20029;-79
2023/02/23 07:06:04;;;;;;;59.07;26.30;;;;;;;;;;5049933;28;20033;-80
2023/02/23 07:08:31;;;;;;;63.37;28.90;;;;;;;;;;5042126;28;20086;-78
2023/02/23 07:11:05;;;;;;;53.13;25.63;;;;;;;;;;5044307;28;20036;-81
2023/02/23 07:13:30;;;;;;;60.13;28.30;;;;;;;;;;5048109;28;20422;-75
2023/02/23 07:15:56;;;;;;;65.93;31.57;;;;;;;;;;5059366;28;20044;-79
2023/02/23 07:18:22;;;;;;;52.97;28.23;;;;;;;;;;5047165;28;20077;-79
2023/02/23 07:20:53;;;;;;;55.13;28.93;;;;;;;;;;5052618;28;20061;-76
2023/02/23 07:23:18;;;;;;;64.20;27.88;;;;;;;;;;5046166;28;20040;-76
2023/02/23 07:25:44;;;;;;;53.57;27.10;;;;;;;;;;5041320;28;20029;-78
2023/02/23 07:28:21;;;;;;;49.83;27.33;;;;;;;;;;5042754;28;20053;-79
2023/02/23 07:30:48;;;;;;;60.37;27.27;;;;;;;;;;5042008;28;20265;-78
2023/02/23 07:33:14;;;;;;;62.27;27.63;;;;;;;;;;5043424;28;20021;-79
2023/02/23 07:35:41;;;;;;;58.30;26.60;;;;;;;;;;5041839;28;20080;-78
2023/02/23 07:38:08;;;;;;;61.13;34.03;;;;;;;;;;5046896;28;20384;-80
2023/02/23 07:40:34;;;;;;;47.00;24.83;;;;;;;;;;5041759;28;20401;-78
2023/02/23 07:42:59;;;;;;;53.60;24.30;;;;;;;;;;5043516;28;20027;-78
2023/02/23 07:45:25;;;;;;;45.17;23.73;;;;;;;;;;5047573;28;20048;-81
2023/02/23 07:47:50;;;;;;;45.43;23.77;;;;;;;;;;5046896;28;20537;-80
2023/02/23 07:50:16;;;;;;;49.30;24.47;;;;;;;;;;5040510;28;20025;-78
2023/02/23 07:52:42;;;;;;;50.43;24.97;;;;;;;;;;5041923;28;20110;-79
2023/02/23 07:55:10;;;;;;;50.90;24.10;;;;;;;;;;5065122;28;20134;-79
2023/02/23 08:00:45;;;;;;;58.80;26.57;;;;;;;;;;5036518;28;20036;-80
2023/02/23 08:03:12;;;;;;;54.10;26.37;;;;;;;;;;5044077;28;20037;-80
2023/02/23 08:05:38;;;;;;;59.97;25.50;;;;;;;;;;5035200;28;20116;-79
2023/02/23 08:08:04;;;;;;;58.90;25.83;;;;;;;;;;5055682;28;20029;-80
2023/02/23 08:10:30;;;;;;;50.40;24.73;;;;;;;;;;5045020;28;20127;-79
2023/02/23 08:12:59;;;;;;;47.63;24.17;;;;;;;;;;5045875;28;20060;-78
2023/02/23 08:15:25;;;;;;;48.92;24.83;;;;;;;;;;5056268;28;20029;-77
2023/02/23 08:17:50;;;;;;;58.53;25.70;;;;;;;;;;5045823;28;20315;-76
2023/02/23 08:20:16;;;;;;;56.30;24.67;;;;;;;;;;5049969;28;20039;-78
2023/02/23 08:22:42;;;;;;;46.43;23.57;;;;;;;;;;5049028;28;20136;-77
2023/02/23 08:25:08;;;;;;;42.87;23.10;;;;;;;;;;5055576;28;20029;-77
2023/02/23 08:28:03;;;;;;;46.87;21.93;;;;;;;;;;5049646;28;20040;-77
2023/02/23 08:30:29;;;;;;;43.80;21.97;;;;;;;;;;5045389;28;20032;-78
2023/02/23 08:32:55;;;;;;;48.03;23.50;;;;;;;;;;5047777;28;20396;-78
2023/02/23 08:35:21;;;;;;;42.53;20.50;;;;;;;;;;5045044;28;20049;-79
2023/02/23 08:37:46;;;;;;;45.77;20.47;;;;;;;;;;5042293;28;20032;-79
2023/02/23 08:40:17;;;;;;;47.65;20.92;;;;;;;;;;5041004;28;20035;-80
2023/02/23 08:42:44;;;;;;;39.70;19.00;;;;;;;;;;5055083;28;20068;-79
2023/02/23 08:45:11;;;;;;;49.00;21.20;;;;;;;;;;5035778;28;20768;-78
2023/02/23 08:47:36;;;;;;;38.17;18.92;;;;;;;;;;5038307;28;20032;-79
2023/02/23 08:50:03;;;;;;;47.40;19.70;;;;;;;;;;5046889;28;20032;-80
2023/02/23 08:52:29;;;;;;;37.13;17.65;;;;;;;;;;5034833;28;20020;-80
2023/02/23 08:54:58;;;;;;;37.35;17.95;;;;;;;;;;5039222;28;20481;-79
2023/02/23 08:57:25;;;;;;;38.13;18.15;;;;;;;;;;5033798;28;20062;-79
2023/02/23 08:59:50;;;;;;;44.08;17.85;;;;;;;;;;5039298;28;20480;-79
2023/02/23 09:02:16;;;;;;;35.40;17.00;;;;;;;;;;5040869;28;20025;-80
2023/02/23 09:04:43;;;;;;;33.92;15.57;;;;;;;;;;5032897;28;20033;-79
2023/02/23 09:07:15;;;;;;;35.50;16.58;;;;;;;;;;5030762;28;20029;-78
2023/02/23 09:09:41;;;;;;;30.40;15.95;;;;;;;;;;5028263;28;20114;-79
2023/02/23 09:12:06;;;;;;;36.65;16.88;;;;;;;;;;5035124;28;20124;-76
2023/02/23 09:14:32;;;;;;;31.73;16.35;;;;;;;;;;5035046;28;20036;-79
2023/02/23 09:16:58;;;;;;;32.83;16.35;;;;;;;;;;5042231;28;20030;-79
2023/02/23 09:19:26;;;;;;;29.77;15.50;;;;;;;;;;5060232;28;20025;-77
2023/02/23 09:21:52;;;;;;;23.92;13.98;;;;;;;;;;5041677;28;20111;-79
2023/02/23 09:24:20;;;;;;;31.10;13.77;;;;;;;;;;5046940;28;20017;-78
2023/02/23 09:26:46;;;;;;;25.95;13.20;;;;;;;;;;5043001;28;20077;-79
2023/02/23 09:29:12;;;;;;;31.25;14.45;;;;;;;;;;5048596;28;20170;-79
2023/02/23 09:31:59;;;;;;;29.05;13.38;;;;;;;;;;5042322;28;20040;-80
2023/02/23 09:34:25;;;;;;;23.23;13.40;;;;;;;;;;5038142;28;20388;-80
2023/02/23 09:36:51;;;;;;;31.15;13.13;;;;;;;;;;5035494;28;20050;-77
2023/02/23 09:39:16;;;;;;;25.33;14.30;;;;;;;;;;5037332;28;20021;-77
2023/02/23 09:42:00;;;;;;;30.17;13.98;;;;;;;;;;5043856;28;20113;-78
2023/02/23 09:44:47;;;;;;;30.88;14.25;;;;;;;;;;5044709;28;20021;-79
2023/02/23 09:47:20;;;;;;;27.38;14.73;;;;;;;;;;5049706;28;20049;-78
2023/02/23 09:49:48;;;;;;;34.55;14.90;;;;;;;;;;5041041;28;20385;-78
2023/02/23 09:52:21;;;;;;;41.40;15.02;;;;;;;;;;5045582;28;20039;-78
2023/02/23 09:54:47;;;;;;;23.98;12.45;;;;;;;;;;5044994;28;20029;-79
2023/02/23 09:57:24;;;;;;;27.30;13.48;;;;;;;;;;5049601;28;20039;-79
2023/02/23 09:59:50;;;;;;;30.15;13.45;;;;;;;;;;5048548;28;20040;-80
2023/02/23 10:02:24;;;;;;;37.42;13.90;;;;;;;;;;5052034;28;20054;-78
2023/02/23 10:05:01;;;;;;;26.67;13.07;;;;;;;;;;5046330;28;20473;-77
2023/02/23 10:07:38;;;;;;;27.55;13.38;;;;;;;;;;5052840;28;20640;-78
2023/02/23 10:10:39;;;;;;;21.70;11.73;;;;;;;;;;5045808;28;20036;-79
2023/02/23 10:13:26;;;;;;;24.27;13.05;;;;;;;;;;5054235;28;20057;-78
2023/02/23 10:15:58;;;;;;;23.70;12.70;;;;;;;;;;5056229;28;20110;-78
2023/02/23 10:19:12;;;;;;;29.48;12.60;;;;;;;;;;5045430;28;20479;-78
2023/02/23 10:21:41;;;;;;;26.35;12.98;;;;;;;;;;5027980;28;20037;-78
2023/02/23 10:24:36;;;;;;;35.50;12.60;;;;;;;;;;5041681;28;20435;-78
2023/02/23 10:27:17;;;;;;;25.70;13.15;;;;;;;;;;5044021;28;20354;-79
2023/02/23 10:29:47;;;;;;;26.38;12.85;;;;;;;;;;5041956;28;20025;-79
2023/02/23 10:32:36;;;;;;;24.85;12.73;;;;;;;;;;5042502;28;20360;-78
2023/02/23 10:35:10;;;;;;;24.50;12.13;;;;;;;;;;5040055;28;20096;-79
2023/02/23 10:37:36;;;;;;;29.10;14.38;;;;;;;;;;5048779;28;20182;-79
2023/02/23 10:40:04;;;;;;;24.50;12.85;;;;;;;;;;5047351;28;20036;-77
2023/02/23 10:42:51;;;;;;;25.10;13.75;;;;;;;;;;5046126;28;20461;-78
2023/02/23 10:45:23;;;;;;;27.30;13.35;;;;;;;;;;5043768;28;20068;-80
2023/02/23 10:47:54;;;;;;;27.65;13.70;;;;;;;;;;5048684;28;20052;-78
2023/02/23 10:50:25;;;;;;;25.42;12.18;;;;;;;;;;5046525;28;20071;-77
2023/02/23 10:53:03;;;;;;;24.05;12.20;;;;;;;;;;5047963;28;20384;-79
2023/02/23 10:55:31;;;;;;;26.48;14.20;;;;;;;;;;5044254;28;20021;-79
2023/02/23 10:58:16;;;;;;;24.60;12.68;;;;;;;;;;5040672;28;20346;-79
2023/02/23 11:00:57;;;;;;;25.85;13.10;;;;;;;;;;5044127;28;20417;-80
2023/02/23 11:03:36;;;;;;;26.02;12.88;;;;;;;;;;5067077;28;20033;-81
2023/02/23 11:06:02;;;;;;;30.38;14.15;;;;;;;;;;5047155;28;20028;-78
2023/02/23 11:08:44;;;;;;;26.85;15.00;;;;;;;;;;5051140;28;20028;-79
2023/02/23 11:11:19;;;;;;;24.13;12.43;;;;;;;;;;5031274;28;20040;-78
2023/02/23 11:13:47;;;;;;;23.15;13.38;;;;;;;;;;5049260;28;20047;-80
2023/02/23 11:16:20;;;;;;;29.45;13.95;;;;;;;;;;5046318;28;20053;-78
2023/02/23 11:18:56;;;;;;;21.30;12.55;;;;;;;;;;5050048;28;20037;-77
2023/02/23 11:21:32;;;;;;;22.38;12.93;;;;;;;;;;5050709;28;20028;-79
2023/02/23 11:24:15;;;;;;;25.05;13.52;;;;;;;;;;5050961;28;20107;-81
2023/02/23 11:26:43;;;;;;;23.55;13.60;;;;;;;;;;5045468;28;20034;-77
2023/02/23 11:29:18;;;;;;;29.13;13.18;;;;;;;;;;5041845;28;20029;-78
2023/02/23 11:31:54;;;;;;;22.98;12.75;;;;;;;;;;5045660;28;20536;-79
2023/02/23 11:34:42;;;;;;;26.17;13.60;;;;;;;;;;5042587;28;20041;-79
2023/02/23 11:37:23;;;;;;;29.00;12.25;;;;;;;;;;5039982;28;20265;-81
2023/02/23 11:40:00;;;;;;;21.98;12.45;;;;;;;;;;5050766;28;20434;-80
2023/02/23 11:42:32;;;;;;;21.92;12.60;;;;;;;;;;5047116;28;20666;-77
2023/02/23 11:45:13;;;;;;;28.67;14.07;;;;;;;;;;5048996;28;20052;-77
2023/02/23 11:47:44;;;;;;;23.87;13.23;;;;;;;;;;5043963;28;20476;-79
2023/02/23 11:50:24;;;;;;;22.10;12.00;;;;;;;;;;5049532;28;20293;-79
2023/02/23 11:53:00;;;;;;;22.35;12.32;;;;;;;;;;5045396;28;20025;-79
2023/02/23 11:55:28;;;;;;;22.75;12.25;;;;;;;;;;5044647;28;20053;-79
2023/02/23 11:58:21;;;;;;;26.48;12.55;;;;;;;;;;5044048;28;20025;-80
2023/02/23 12:00:59;;;;;;;24.98;12.20;;;;;;;;;;5051193;28;20043;-78
2023/02/23 12:03:27;;;;;;;29.60;15.68;;;;;;;;;;5051247;28;20060;-79
2023/02/23 12:05:56;;;;;;;24.98;11.95;;;;;;;;;;5046084;28;20021;-78
2023/02/23 12:08:45;;;;;;;21.65;12.65;;;;;;;;;;5045171;28;20064;-78
2023/02/23 12:11:19;;;;;;;28.48;12.15;;;;;;;;;;5047481;28;20120;-79
2023/02/23 12:13:49;;;;;;;27.88;13.30;;;;;;;;;;5048731;28;20067;-81
2023/02/23 12:16:17;;;;;;;25.40;12.65;;;;;;;;;;5051371;28;20420;-80
2023/02/23 12:19:07;;;;;;;21.88;12.00;;;;;;;;;;5040239;28;20115;-79
2023/02/23 12:22:08;;;;;;;22.27;11.63;;;;;;;;;;5042440;28;20021;-78
2023/02/23 12:25:10;;;;;;;20.60;11.90;;;;;;;;;;5014167;28;20034;-80
2023/02/23 12:27:46;;;;;;;;;;;;;;;;;;4990337;28;20065;-78
2023/02/23 12:30:21;;;;;;;28.40;11.43;;;;;;;;;;5042521;28;19943;-79
2023/02/23 12:33:12;;;;;;;19.42;11.60;;;;;;;;;;5039940;28;20024;-79
2023/02/23 12:36:25;;;;;;;26.27;13.38;;;;;;;;;;5042625;28;20493;-78
2023/02/23 12:39:17;;;;;;;21.30;12.35;;;;;;;;;;5044105;28;20032;-79
2023/02/23 12:42:19;;;;;;;24.23;14.70;;;;;;;;;;5048275;28;20040;-77
2023/02/23 12:44:53;;;;;;;16.83;10.73;;;;;;;;;;5061080;28;20032;-78
2023/02/23 12:47:48;;;;;;;28.80;11.23;;;;;;;;;;5043849;28;20337;-77
2023/02/23 12:50:37;;;;;;;22.38;12.07;;;;;;;;;;5039402;28;20025;-78
2023/02/23 12:53:14;;;;;;;19.20;10.93;;;;;;;;;;5043727;28;20021;-81
2023/02/23 12:55:40;;;;;;;23.42;10.57;;;;;;;;;;5061395;28;20055;-79
2023/02/23 12:58:20;;;;;;;19.15;12.10;;;;;;;;;;5042734;28;20025;-80
2023/02/23 13:01:15;;;;;;;27.08;12.75;;;;;;;;;;5046856;28;20076;-79
2023/02/23 13:04:15;;;;;;;29.20;12.57;;;;;;;;;;5040660;28;20098;-80
2023/02/23 13:07:00;;;;;;;21.75;12.48;;;;;;;;;;5040174;28;20041;-79
2023/02/23 13:09:44;;;;;;;27.95;12.43;;;;;;;;;;5060966;28;20026;-80
2023/02/23 13:12:54;;;;;;;21.02;12.32;;;;;;;;;;5044417;28;20161;-79
2023/02/23 13:15:44;;;;;;;25.83;13.27;;;;;;;;;;5003179;28;20077;-81
2023/02/23 13:18:15;;;;;;;40.97;14.93;;;;;;;;;;5046614;28;20078;-78
2023/02/23 13:20:49;;;;;;;24.23;12.10;;;;;;;;;;5046119;28;20035;-79
2023/02/23 13:23:26;;;;;;;26.05;12.95;;;;;;;;;;5047955;28;20389;-80
2023/02/23 13:26:11;;;;;;;29.58;15.10;;;;;;;;;;5041087;28;20048;-79
2023/02/23 13:28:59;;;;;;;23.75;12.55;;;;;;;;;;5046948;28;20454;-78
2023/02/23 13:31:30;;;;;;;21.98;12.65;;;;;;;;;;5038982;28;20033;-79
2023/02/23 13:33:59;;;;;;;23.92;12.80;;;;;;;;;;5049785;28;20133;-78
2023/02/23 13:36:28;;;;;;;24.35;13.20;;;;;;;;;;5055595;28;20043;-81
2023/02/23 13:39:23;;;;;;;22.60;12.18;;;;;;;;;;5049935;28;20028;-81
2023/02/23 13:42:11;;;;;;;21.83;11.98;;;;;;;;;;5070204;28;20029;-80
2023/02/23 13:44:52;;;;;;;24.58;12.13;;;;;;;;;;5057233;28;20036;-82
2023/02/23 13:47:44;;;;;;;24.20;12.90;;;;;;;;;;5051489;28;20225;-79
2023/02/23 13:50:30;;;;;;;23.15;11.05;;;;;;;;;;5046478;28;20457;-79
2023/02/23 13:53:05;;;;;;;29.85;12.68;;;;;;;;;;5047949;28;20033;-81
2023/02/23 13:55:36;;;;;;;25.65;12.45;;;;;;;;;;5045514;28;20052;-81
2023/02/23 13:58:14;;;;;;;23.10;13.35;;;;;;;;;;5071722;28;20024;-81
2023/02/23 14:00:42;;;;;;;21.88;13.30;;;;;;;;;;5046695;28;20032;-82
2023/02/23 14:03:24;;;;;;;29.20;12.35;;;;;;;;;;5041884;28;20389;-81
2023/02/23 14:05:55;;;;;;;;;;;;;;;;;;5047718;28;20033;-80
2023/02/23 14:08:33;;;;;;;36.30;18.67;;;;;;;;;;5059839;28;19998;-80
2023/02/23 14:10:59;;;;;;;20.98;11.93;;;;;;;;;;5044414;28;20475;-80
2023/02/23 14:13:33;;;;;;;19.60;12.25;;;;;;;;;;5049900;28;20124;-81
2023/02/23 14:16:14;;;;;;;22.20;12.52;;;;;;;;;;5049238;28;20018;-81
2023/02/23 14:19:25;;;;;;;24.80;12.75;;;;;;;;;;5049318;28;20039;-81
2023/02/23 14:21:59;;;;;;;25.63;12.45;;;;;;;;;;5027481;28;20476;-80
2023/02/23 14:24:26;;;;;;;38.33;15.38;;;;;;;;;;5044947;28;20040;-81
2023/02/23 14:27:17;;;;;;;29.98;14.60;;;;;;;;;;5048632;28;20040;-81
2023/02/23 14:30:04;;;;;;;26.30;12.38;;;;;;;;;;5050995;28;20105;-81
2023/02/23 14:32:31;;;;;;;22.55;12.68;;;;;;;;;;5038069;28;20513;-80
2023/02/23 14:34:59;;;;;;;28.10;13.88;;;;;;;;;;5051999;28;20203;-80
2023/02/23 14:37:36;;;;;;;30.20;13.18;;;;;;;;;;5046233;28;20476;-79
2023/02/23 14:40:29;;;;;;;27.55;12.10;;;;;;;;;;5052758;28;20465;-80
2023/02/23 14:43:00;;;;;;;30.27;13.63;;;;;;;;;;5050453;28;20037;-80
2023/02/23 14:45:28;;;;;;;25.13;13.38;;;;;;;;;;5060802;28;20037;-80
2023/02/23 14:48:14;;;;;;;26.85;11.80;;;;;;;;;;5042692;28;20420;-79
2023/02/23 14:50:40;;;;;;;26.85;13.35;;;;;;;;;;5043526;28;20025;-79
2023/02/23 14:53:17;;;;;;;26.63;12.32;;;;;;;;;;5043007;28;20033;-79
2023/02/23 14:55:44;;;;;;;23.80;11.95;;;;;;;;;;5050028;28;20032;-80
2023/02/23 14:58:29;;;;;;;21.67;11.43;;;;;;;;;;5053602;28;20020;-82
2023/02/23 15:00:54;;;;;;;22.23;11.65;;;;;;;;;;5036598;28;20041;-78
2023/02/23 15:03:21;;;;;;;19.00;11.00;;;;;;;;;;5041178;28;20029;-79
2023/02/23 15:06:02;;;;;;;25.23;13.02;;;;;;;;;;5074115;28;20024;-91
2023/02/23 15:08:36;;;;;;;25.40;11.98;;;;;;;;;;5057145;28;20029;-94
2023/02/23 15:11:12;;;;;;;16.27;9.93;;;;;;;;;;5058184;28;20084;-94
2023/02/23 15:13:46;;;;;;;16.08;9.88;;;;;;;;;;5065630;22;20033;-74
2023/02/23 15:16:25;;;;;;;23.48;11.27;;;;;;;;;;5063368;28;20025;-74
2023/02/23 15:18:52;;;;;;;23.90;11.25;;;;;;;;;;5033364;28;20033;-74
2023/02/23 15:21:21;;;;;;;37.05;12.43;;;;;;;;;;5022296;28;20111;-74
2023/02/23 15:23:50;;;;;;;23.98;11.40;;;;;;;;;;5016157;28;20092;-74
2023/02/23 15:26:33;;;;;;;17.67;10.18;;;;;;;;;;5037109;28;20033;-75
2023/02/23 15:29:14;;;;;;;36.28;12.27;;;;;;;;;;5020760;28;20100;-81
2023/02/23 15:31:49;;;;;;;19.38;11.77;;;;;;;;;;5029626;28;20037;-79
2023/02/23 15:34:18;;;;;;;28.23;12.80;;;;;;;;;;5010344;28;20040;-81
2023/02/23 15:36:49;;;;;;;26.50;11.65;;;;;;;;;;5010779;28;20030;-78
2023/02/23 15:39:19;;;;;;;33.65;12.95;;;;;;;;;;5011879;28;20041;-79
2023/02/23 15:41:47;;;;;;;25.30;12.55;;;;;;;;;;5011437;28;20030;-80
2023/02/23 15:44:20;;;;;;;24.48;11.77;;;;;;;;;;5012209;28;20033;-79
2023/02/23 15:46:51;;;;;;;24.83;12.45;;;;;;;;;;5030506;28;20037;-80
2023/02/23 15:49:19;;;;;;;24.48;12.75;;;;;;;;;;5030888;28;20138;-81
2023/02/23 15:51:49;;;;;;;20.02;11.25;;;;;;;;;;5030508;28;20190;-81
2023/02/23 15:54:31;;;;;;;24.48;12.30;;;;;;;;;;5029798;28;20036;-81
2023/02/23 15:57:01;;;;;;;24.42;11.90;;;;;;;;;;5029533;28;20037;-81
2023/02/23 15:59:29;;;;;;;20.60;11.68;;;;;;;;;;5031126;28;20457;-79
2023/02/23 16:01:58;;;;;;;25.63;12.88;;;;;;;;;;5035827;28;20084;-79
2023/02/23 16:04:31;;;;;;;21.92;12.77;;;;;;;;;;5024329;28;20374;-81
2023/02/23 16:07:28;;;;;;;24.25;12.25;;;;;;;;;;5030060;28;20067;-81
2023/02/23 16:10:16;;;;;;;24.20;13.18;;;;;;;;;;5030488;28;20536;-80
2023/02/23 16:12:47;;;;;;;23.92;13.25;;;;;;;;;;5006725;28;20493;-80